sensor_id;sensor_type;location;lat;lon;timestamp;P1;durP1;ratioP1;P2;durP2;ratioP2
41217;SDS011;26950;50.960;7.138;2022-08-04T00:01:19;5.30;;;1.65;;
41217;SDS011;26950;50.960;7.138;2022-08-04T00:03:51;5.90;;;1.80;;
41217;SDS011;26950;50.960;7.138;2022-08-04T00:06:22;5.70;;;1.75;;
41217;SDS011;26950;50.960;7.138;2022-08-04T00:09:00;5.63;;;1.95;;
41217;SDS011;26950;50.960;7.138;2022-08-04T00:11:31;4.15;;;1.80;;
41217;SDS011;26950;50.960;7.138;2022-08-04T00:14:01;6.15;;;1.80;;
41217;SDS011;26950;50.960;7.138;2022-08-04T00:16:31;3.45;;;1.60;;
41217;SDS011;26950;50.960;7.138;2022-08-04T00:19:03;6.47;;;1.73;;
41217;SDS011;26950;50.960;7.138;2022-08-04T00:21:35;3.42;;;1.60;;
41217;SDS011;26950;50.960;7.138;2022-08-04T00:24:04;6.07;;;1.63;;
41217;SDS011;26950;50.960;7.138;2022-08-04T00:26:32;4.82;;;1.75;;
41217;SDS011;26950;50.960;7.138;2022-08-04T00:28:59;4.78;;;1.75;;
41217;SDS011;26950;50.960;7.138;2022-08-04T00:31:26;5.75;;;2.08;;
41217;SDS011;26950;50.960;7.138;2022-08-04T00:33:52;4.47;;;1.48;;
41217;SDS011;26950;50.960;7.138;2022-08-04T00:36:21;5.93;;;1.70;;
41217;SDS011;26950;50.960;7.138;2022-08-04T00:38:48;6.05;;;1.70;;
41217;SDS011;26950;50.960;7.138;2022-08-04T00:41:18;4.13;;;1.73;;
41217;SDS011;26950;50.960;7.138;2022-08-04T00:43:54;4.38;;;1.65;;
41217;SDS011;26950;50.960;7.138;2022-08-04T00:46:38;2.30;;;1.58;;
41217;SDS011;26950;50.960;7.138;2022-08-04T00:49:26;4.07;;;1.77;;
41217;SDS011;26950;50.960;7.138;2022-08-04T00:52:14;6.65;;;1.65;;
41217;SDS011;26950;50.960;7.138;2022-08-04T00:54:56;6.38;;;2.08;;
41217;SDS011;26950;50.960;7.138;2022-08-04T00:57:30;3.83;;;1.90;;
41217;SDS011;26950;50.960;7.138;2022-08-04T01:00:16;4.18;;;1.80;;
41217;SDS011;26950;50.960;7.138;2022-08-04T01:02:47;4.03;;;2.00;;
41217;SDS011;26950;50.960;7.138;2022-08-04T01:05:29;4.28;;;1.95;;
41217;SDS011;26950;50.960;7.138;2022-08-04T01:08:05;5.80;;;2.13;;
41217;SDS011;26950;50.960;7.138;2022-08-04T01:10:45;5.07;;;2.03;;
41217;SDS011;26950;50.960;7.138;2022-08-04T01:13:31;5.55;;;1.80;;
41217;SDS011;26950;50.960;7.138;2022-08-04T01:16:09;4.05;;;1.88;;
41217;SDS011;26950;50.960;7.138;2022-08-04T01:18:44;4.20;;;2.10;;
41217;SDS011;26950;50.960;7.138;2022-08-04T01:21:30;4.25;;;2.00;;
41217;SDS011;26950;50.960;7.138;2022-08-04T01:24:35;5.30;;;1.80;;
41217;SDS011;26950;50.960;7.138;2022-08-04T01:27:17;5.35;;;1.60;;
41217;SDS011;26950;50.960;7.138;2022-08-04T01:29:54;8.77;;;2.00;;
41217;SDS011;26950;50.960;7.138;2022-08-04T01:32:24;5.50;;;1.90;;
41217;SDS011;26950;50.960;7.138;2022-08-04T01:34:55;5.57;;;1.80;;
41217;SDS011;26950;50.960;7.138;2022-08-04T01:37:31;4.97;;;1.90;;
41217;SDS011;26950;50.960;7.138;2022-08-04T01:40:09;4.28;;;1.90;;
41217;SDS011;26950;50.960;7.138;2022-08-04T01:42:40;5.20;;;1.77;;
41217;SDS011;26950;50.960;7.138;2022-08-04T01:45:09;5.38;;;1.85;;
41217;SDS011;26950;50.960;7.138;2022-08-04T01:47:37;4.43;;;1.70;;
41217;SDS011;26950;50.960;7.138;2022-08-04T01:50:08;4.75;;;1.70;;
41217;SDS011;26950;50.960;7.138;2022-08-04T01:52:38;3.88;;;1.83;;
41217;SDS011;26950;50.960;7.138;2022-08-04T01:55:06;5.68;;;1.80;;
41217;SDS011;26950;50.960;7.138;2022-08-04T01:57:34;3.33;;;1.55;;
41217;SDS011;26950;50.960;7.138;2022-08-04T02:00:03;4.85;;;2.10;;
41217;SDS011;26950;50.960;7.138;2022-08-04T02:02:32;2.40;;;1.50;;
41217;SDS011;26950;50.960;7.138;2022-08-04T02:04:58;4.28;;;1.88;;
41217;SDS011;26950;50.960;7.138;2022-08-04T02:07:27;5.25;;;2.20;;
41217;SDS011;26950;50.960;7.138;2022-08-04T02:10:03;3.38;;;1.77;;
41217;SDS011;26950;50.960;7.138;2022-08-04T02:12:35;6.35;;;2.30;;
41217;SDS011;26950;50.960;7.138;2022-08-04T02:15:12;4.80;;;2.20;;
41217;SDS011;26950;50.960;7.138;2022-08-04T02:17:52;3.58;;;2.00;;
41217;SDS011;26950;50.960;7.138;2022-08-04T02:20:28;4.55;;;2.00;;
41217;SDS011;26950;50.960;7.138;2022-08-04T02:22:58;3.60;;;1.88;;
41217;SDS011;26950;50.960;7.138;2022-08-04T02:25:27;7.25;;;2.13;;
41217;SDS011;26950;50.960;7.138;2022-08-04T02:28:02;3.38;;;1.98;;
41217;SDS011;26950;50.960;7.138;2022-08-04T02:30:49;3.75;;;1.80;;
41217;SDS011;26950;50.960;7.138;2022-08-04T02:33:25;4.60;;;1.88;;
41217;SDS011;26950;50.960;7.138;2022-08-04T02:36:00;6.40;;;1.90;;
41217;SDS011;26950;50.960;7.138;2022-08-04T02:38:37;3.65;;;2.00;;
41217;SDS011;26950;50.960;7.138;2022-08-04T02:41:12;5.13;;;1.90;;
41217;SDS011;26950;50.960;7.138;2022-08-04T02:43:42;7.57;;;2.10;;
41217;SDS011;26950;50.960;7.138;2022-08-04T02:46:12;8.13;;;2.15;;
41217;SDS011;26950;50.960;7.138;2022-08-04T02:48:40;4.78;;;1.92;;
41217;SDS011;26950;50.960;7.138;2022-08-04T02:51:11;2.95;;;1.70;;
41217;SDS011;26950;50.960;7.138;2022-08-04T02:53:39;3.42;;;1.63;;
41217;SDS011;26950;50.960;7.138;2022-08-04T02:56:06;3.38;;;1.85;;
41217;SDS011;26950;50.960;7.138;2022-08-04T02:58:34;6.18;;;2.10;;
41217;SDS011;26950;50.960;7.138;2022-08-04T03:01:02;4.13;;;2.00;;
41217;SDS011;26950;50.960;7.138;2022-08-04T03:03:30;4.72;;;2.10;;
41217;SDS011;26950;50.960;7.138;2022-08-04T03:06:11;3.58;;;1.98;;
41217;SDS011;26950;50.960;7.138;2022-08-04T03:08:59;4.50;;;2.08;;
41217;SDS011;26950;50.960;7.138;2022-08-04T03:12:13;6.03;;;2.50;;
41217;SDS011;26950;50.960;7.138;2022-08-04T03:18:09;3.47;;;1.90;;
41217;SDS011;26950;50.960;7.138;2022-08-04T03:24:15;4.80;;;2.13;;
41217;SDS011;26950;50.960;7.138;2022-08-04T03:27:00;5.65;;;2.00;;
41217;SDS011;26950;50.960;7.138;2022-08-04T03:29:44;5.18;;;2.22;;
41217;SDS011;26950;50.960;7.138;2022-08-04T03:32:58;6.80;;;2.28;;
41217;SDS011;26950;50.960;7.138;2022-08-04T03:35:44;3.78;;;1.92;;
41217;SDS011;26950;50.960;7.138;2022-08-04T03:38:41;4.05;;;2.28;;
41217;SDS011;26950;50.960;7.138;2022-08-04T03:41:34;3.60;;;2.10;;
41217;SDS011;26950;50.960;7.138;2022-08-04T03:47:19;4.68;;;2.30;;
41217;SDS011;26950;50.960;7.138;2022-08-04T03:53:08;4.38;;;2.33;;
41217;SDS011;26950;50.960;7.138;2022-08-04T03:59:08;3.20;;;2.30;;
41217;SDS011;26950;50.960;7.138;2022-08-04T04:02:01;8.05;;;2.20;;
41217;SDS011;26950;50.960;7.138;2022-08-04T04:04:49;4.07;;;2.08;;
41217;SDS011;26950;50.960;7.138;2022-08-04T04:07:36;2.60;;;2.17;;
41217;SDS011;26950;50.960;7.138;2022-08-04T04:10:29;6.45;;;2.08;;
41217;SDS011;26950;50.960;7.138;2022-08-04T04:13:14;2.30;;;2.10;;
41217;SDS011;26950;50.960;7.138;2022-08-04T04:16:02;3.58;;;2.22;;
41217;SDS011;26950;50.960;7.138;2022-08-04T04:18:48;3.97;;;2.05;;
41217;SDS011;26950;50.960;7.138;2022-08-04T04:21:26;4.25;;;2.40;;
41217;SDS011;26950;50.960;7.138;2022-08-04T04:24:05;4.88;;;2.60;;
41217;SDS011;26950;50.960;7.138;2022-08-04T04:26:51;6.57;;;2.53;;
41217;SDS011;26950;50.960;7.138;2022-08-04T04:29:27;5.88;;;2.58;;
41217;SDS011;26950;50.960;7.138;2022-08-04T04:32:07;5.60;;;2.60;;
41217;SDS011;26950;50.960;7.138;2022-08-04T04:34:48;5.55;;;2.40;;
41217;SDS011;26950;50.960;7.138;2022-08-04T04:37:35;5.70;;;2.20;;
41217;SDS011;26950;50.960;7.138;2022-08-04T04:40:18;5.28;;;2.20;;
41217;SDS011;26950;50.960;7.138;2022-08-04T04:43:08;3.45;;;2.53;;
41217;SDS011;26950;50.960;7.138;2022-08-04T04:45:45;4.70;;;2.30;;
41217;SDS011;26950;50.960;7.138;2022-08-04T04:48:23;4.97;;;2.53;;
41217;SDS011;26950;50.960;7.138;2022-08-04T04:51:04;5.75;;;2.60;;
41217;SDS011;26950;50.960;7.138;2022-08-04T04:53:37;5.05;;;2.58;;
41217;SDS011;26950;50.960;7.138;2022-08-04T04:56:13;5.22;;;2.30;;
41217;SDS011;26950;50.960;7.138;2022-08-04T04:58:43;5.10;;;2.50;;
41217;SDS011;26950;50.960;7.138;2022-08-04T05:01:16;8.43;;;2.28;;
41217;SDS011;26950;50.960;7.138;2022-08-04T05:04:06;4.00;;;2.13;;
41217;SDS011;26950;50.960;7.138;2022-08-04T05:06:48;5.55;;;2.45;;
41217;SDS011;26950;50.960;7.138;2022-08-04T05:09:35;4.70;;;2.20;;
41217;SDS011;26950;50.960;7.138;2022-08-04T05:12:19;3.80;;;2.60;;
41217;SDS011;26950;50.960;7.138;2022-08-04T05:14:56;3.97;;;2.38;;
41217;SDS011;26950;50.960;7.138;2022-08-04T05:17:25;4.90;;;2.45;;
41217;SDS011;26950;50.960;7.138;2022-08-04T05:19:58;3.20;;;2.35;;
41217;SDS011;26950;50.960;7.138;2022-08-04T05:22:28;4.80;;;2.20;;
41217;SDS011;26950;50.960;7.138;2022-08-04T05:25:02;3.83;;;2.45;;
41217;SDS011;26950;50.960;7.138;2022-08-04T05:27:34;4.15;;;2.42;;
41217;SDS011;26950;50.960;7.138;2022-08-04T05:30:04;4.30;;;2.67;;
41217;SDS011;26950;50.960;7.138;2022-08-04T05:32:34;5.03;;;2.55;;
41217;SDS011;26950;50.960;7.138;2022-08-04T05:35:08;4.03;;;2.25;;
41217;SDS011;26950;50.960;7.138;2022-08-04T05:37:37;4.35;;;2.70;;
41217;SDS011;26950;50.960;7.138;2022-08-04T05:40:06;5.90;;;2.33;;
41217;SDS011;26950;50.960;7.138;2022-08-04T05:42:36;3.88;;;2.53;;
41217;SDS011;26950;50.960;7.138;2022-08-04T05:45:05;3.72;;;2.50;;
41217;SDS011;26950;50.960;7.138;2022-08-04T05:47:33;5.28;;;2.60;;
41217;SDS011;26950;50.960;7.138;2022-08-04T05:50:01;5.85;;;2.45;;
41217;SDS011;26950;50.960;7.138;2022-08-04T05:52:30;7.00;;;2.60;;
41217;SDS011;26950;50.960;7.138;2022-08-04T05:54:59;3.83;;;2.75;;
41217;SDS011;26950;50.960;7.138;2022-08-04T05:57:27;6.05;;;2.88;;
41217;SDS011;26950;50.960;7.138;2022-08-04T05:59:54;3.88;;;2.63;;
41217;SDS011;26950;50.960;7.138;2022-08-04T06:02:23;3.95;;;2.53;;
41217;SDS011;26950;50.960;7.138;2022-08-04T06:04:52;5.45;;;2.53;;
41217;SDS011;26950;50.960;7.138;2022-08-04T06:07:20;8.38;;;2.47;;
41217;SDS011;26950;50.960;7.138;2022-08-04T06:09:48;4.05;;;2.53;;
41217;SDS011;26950;50.960;7.138;2022-08-04T06:12:17;9.88;;;2.50;;
41217;SDS011;26950;50.960;7.138;2022-08-04T06:14:47;5.18;;;2.65;;
41217;SDS011;26950;50.960;7.138;2022-08-04T06:17:20;5.88;;;2.80;;
41217;SDS011;26950;50.960;7.138;2022-08-04T06:19:49;6.32;;;2.80;;
41217;SDS011;26950;50.960;7.138;2022-08-04T06:22:18;3.08;;;2.20;;
41217;SDS011;26950;50.960;7.138;2022-08-04T06:24:48;6.38;;;2.35;;
41217;SDS011;26950;50.960;7.138;2022-08-04T06:27:19;4.85;;;2.50;;
41217;SDS011;26950;50.960;7.138;2022-08-04T06:29:46;4.55;;;2.20;;
41217;SDS011;26950;50.960;7.138;2022-08-04T06:32:14;5.93;;;2.58;;
41217;SDS011;26950;50.960;7.138;2022-08-04T06:34:51;2.90;;;2.22;;
41217;SDS011;26950;50.960;7.138;2022-08-04T06:37:20;3.67;;;2.22;;
41217;SDS011;26950;50.960;7.138;2022-08-04T06:39:49;3.72;;;2.45;;
41217;SDS011;26950;50.960;7.138;2022-08-04T06:42:17;4.95;;;2.20;;
41217;SDS011;26950;50.960;7.138;2022-08-04T06:44:48;3.55;;;2.17;;
41217;SDS011;26950;50.960;7.138;2022-08-04T06:47:16;2.53;;;2.10;;
41217;SDS011;26950;50.960;7.138;2022-08-04T06:49:45;4.75;;;2.58;;
41217;SDS011;26950;50.960;7.138;2022-08-04T06:52:13;5.90;;;2.30;;
41217;SDS011;26950;50.960;7.138;2022-08-04T06:54:42;4.65;;;2.13;;
41217;SDS011;26950;50.960;7.138;2022-08-04T06:57:10;3.08;;;2.42;;
41217;SDS011;26950;50.960;7.138;2022-08-04T06:59:40;7.25;;;2.17;;
41217;SDS011;26950;50.960;7.138;2022-08-04T07:02:10;4.07;;;2.47;;
41217;SDS011;26950;50.960;7.138;2022-08-04T07:04:40;4.07;;;2.28;;
41217;SDS011;26950;50.960;7.138;2022-08-04T07:07:07;4.53;;;2.10;;
41217;SDS011;26950;50.960;7.138;2022-08-04T07:09:34;4.72;;;2.28;;
41217;SDS011;26950;50.960;7.138;2022-08-04T07:12:00;3.95;;;2.67;;
41217;SDS011;26950;50.960;7.138;2022-08-04T07:14:29;3.70;;;2.38;;
41217;SDS011;26950;50.960;7.138;2022-08-04T07:16:57;7.43;;;2.60;;
41217;SDS011;26950;50.960;7.138;2022-08-04T07:19:24;4.30;;;2.10;;
41217;SDS011;26950;50.960;7.138;2022-08-04T07:21:50;5.38;;;2.40;;
41217;SDS011;26950;50.960;7.138;2022-08-04T07:24:17;2.80;;;2.28;;
41217;SDS011;26950;50.960;7.138;2022-08-04T07:26:43;2.53;;;2.13;;
41217;SDS011;26950;50.960;7.138;2022-08-04T07:29:15;4.15;;;2.50;;
41217;SDS011;26950;50.960;7.138;2022-08-04T07:31:44;2.90;;;2.33;;
41217;SDS011;26950;50.960;7.138;2022-08-04T07:34:12;6.53;;;2.83;;
41217;SDS011;26950;50.960;7.138;2022-08-04T07:36:39;5.38;;;2.20;;
41217;SDS011;26950;50.960;7.138;2022-08-04T07:39:05;6.63;;;2.55;;
41217;SDS011;26950;50.960;7.138;2022-08-04T07:41:32;4.00;;;2.30;;
41217;SDS011;26950;50.960;7.138;2022-08-04T07:43:59;5.65;;;2.30;;
41217;SDS011;26950;50.960;7.138;2022-08-04T07:46:26;4.20;;;2.60;;
41217;SDS011;26950;50.960;7.138;2022-08-04T07:48:55;3.80;;;2.70;;
41217;SDS011;26950;50.960;7.138;2022-08-04T07:51:22;4.55;;;2.42;;
41217;SDS011;26950;50.960;7.138;2022-08-04T07:53:49;6.72;;;2.38;;
41217;SDS011;26950;50.960;7.138;2022-08-04T07:56:16;4.60;;;2.38;;
41217;SDS011;26950;50.960;7.138;2022-08-04T07:58:43;5.55;;;2.25;;
41217;SDS011;26950;50.960;7.138;2022-08-04T08:01:09;7.35;;;2.63;;
41217;SDS011;26950;50.960;7.138;2022-08-04T08:03:36;3.38;;;2.28;;
41217;SDS011;26950;50.960;7.138;2022-08-04T08:06:05;4.10;;;2.28;;
41217;SDS011;26950;50.960;7.138;2022-08-04T08:08:32;3.50;;;2.03;;
41217;SDS011;26950;50.960;7.138;2022-08-04T08:10:58;4.38;;;2.20;;
41217;SDS011;26950;50.960;7.138;2022-08-04T08:13:25;6.28;;;2.20;;
41217;SDS011;26950;50.960;7.138;2022-08-04T08:15:51;3.80;;;2.22;;
41217;SDS011;26950;50.960;7.138;2022-08-04T08:18:19;3.28;;;2.17;;
41217;SDS011;26950;50.960;7.138;2022-08-04T08:20:45;3.45;;;2.20;;
41217;SDS011;26950;50.960;7.138;2022-08-04T08:23:13;3.75;;;2.20;;
41217;SDS011;26950;50.960;7.138;2022-08-04T08:25:40;4.72;;;2.35;;
41217;SDS011;26950;50.960;7.138;2022-08-04T08:28:07;2.40;;;1.98;;
41217;SDS011;26950;50.960;7.138;2022-08-04T08:30:33;5.65;;;2.30;;
41217;SDS011;26950;50.960;7.138;2022-08-04T08:33:01;5.60;;;2.22;;
41217;SDS011;26950;50.960;7.138;2022-08-04T08:35:32;3.88;;;2.20;;
41217;SDS011;26950;50.960;7.138;2022-08-04T08:38:02;4.68;;;2.42;;
41217;SDS011;26950;50.960;7.138;2022-08-04T08:40:34;4.40;;;2.30;;
41217;SDS011;26950;50.960;7.138;2022-08-04T08:43:18;4.30;;;2.40;;
41217;SDS011;26950;50.960;7.138;2022-08-04T08:46:04;9.63;;;2.65;;
41217;SDS011;26950;50.960;7.138;2022-08-04T08:48:57;5.60;;;2.20;;
41217;SDS011;26950;50.960;7.138;2022-08-04T08:51:53;5.78;;;2.28;;
41217;SDS011;26950;50.960;7.138;2022-08-04T08:57:21;5.20;;;2.20;;
41217;SDS011;26950;50.960;7.138;2022-08-04T09:00:11;7.88;;;2.50;;
41217;SDS011;26950;50.960;7.138;2022-08-04T09:05:58;4.00;;;1.90;;
41217;SDS011;26950;50.960;7.138;2022-08-04T09:08:49;4.13;;;2.10;;
41217;SDS011;26950;50.960;7.138;2022-08-04T09:11:36;3.25;;;1.95;;
41217;SDS011;26950;50.960;7.138;2022-08-04T09:14:09;5.15;;;2.20;;
41217;SDS011;26950;50.960;7.138;2022-08-04T09:16:44;7.40;;;2.38;;
41217;SDS011;26950;50.960;7.138;2022-08-04T09:19:16;6.47;;;2.38;;
41217;SDS011;26950;50.960;7.138;2022-08-04T09:21:50;4.15;;;2.50;;
41217;SDS011;26950;50.960;7.138;2022-08-04T09:24:24;3.00;;;2.05;;
41217;SDS011;26950;50.960;7.138;2022-08-04T09:26:55;4.78;;;2.10;;
41217;SDS011;26950;50.960;7.138;2022-08-04T09:29:29;5.25;;;2.08;;
41217;SDS011;26950;50.960;7.138;2022-08-04T09:32:03;3.17;;;2.17;;
41217;SDS011;26950;50.960;7.138;2022-08-04T09:34:38;4.60;;;2.15;;
41217;SDS011;26950;50.960;7.138;2022-08-04T09:37:13;3.67;;;2.20;;
41217;SDS011;26950;50.960;7.138;2022-08-04T09:39:48;4.70;;;1.92;;
41217;SDS011;26950;50.960;7.138;2022-08-04T09:42:27;3.50;;;1.98;;
41217;SDS011;26950;50.960;7.138;2022-08-04T09:45:06;7.45;;;2.45;;
41217;SDS011;26950;50.960;7.138;2022-08-04T09:47:38;4.18;;;2.00;;
41217;SDS011;26950;50.960;7.138;2022-08-04T09:50:19;3.42;;;2.10;;
41217;SDS011;26950;50.960;7.138;2022-08-04T09:52:55;3.15;;;1.90;;
41217;SDS011;26950;50.960;7.138;2022-08-04T09:55:30;4.70;;;2.00;;
41217;SDS011;26950;50.960;7.138;2022-08-04T09:58:09;3.15;;;1.73;;
41217;SDS011;26950;50.960;7.138;2022-08-04T10:00:48;6.00;;;1.80;;
41217;SDS011;26950;50.960;7.138;2022-08-04T10:03:18;9.75;;;2.10;;
41217;SDS011;26950;50.960;7.138;2022-08-04T10:05:55;8.00;;;1.67;;
41217;SDS011;26950;50.960;7.138;2022-08-04T10:08:35;6.10;;;1.92;;
41217;SDS011;26950;50.960;7.138;2022-08-04T10:11:15;8.25;;;2.00;;
41217;SDS011;26950;50.960;7.138;2022-08-04T10:13:50;2.42;;;1.85;;
41217;SDS011;26950;50.960;7.138;2022-08-04T10:16:30;2.22;;;2.00;;
41217;SDS011;26950;50.960;7.138;2022-08-04T10:19:06;5.13;;;1.92;;
41217;SDS011;26950;50.960;7.138;2022-08-04T10:21:41;4.47;;;2.00;;
41217;SDS011;26950;50.960;7.138;2022-08-04T10:24:26;3.13;;;1.80;;
41217;SDS011;26950;50.960;7.138;2022-08-04T10:27:03;7.07;;;2.15;;
41217;SDS011;26950;50.960;7.138;2022-08-04T10:29:36;7.10;;;2.40;;
41217;SDS011;26950;50.960;7.138;2022-08-04T10:32:08;4.38;;;2.30;;
41217;SDS011;26950;50.960;7.138;2022-08-04T10:34:42;6.72;;;2.70;;
41217;SDS011;26950;50.960;7.138;2022-08-04T10:37:16;4.18;;;2.55;;
41217;SDS011;26950;50.960;7.138;2022-08-04T10:39:45;5.20;;;2.70;;
41217;SDS011;26950;50.960;7.138;2022-08-04T10:42:34;6.53;;;2.67;;
41217;SDS011;26950;50.960;7.138;2022-08-04T10:45:07;4.68;;;2.50;;
41217;SDS011;26950;50.960;7.138;2022-08-04T10:47:44;5.68;;;2.25;;
41217;SDS011;26950;50.960;7.138;2022-08-04T10:50:17;6.55;;;2.05;;
41217;SDS011;26950;50.960;7.138;2022-08-04T10:52:47;3.20;;;2.20;;
41217;SDS011;26950;50.960;7.138;2022-08-04T10:55:22;5.38;;;2.30;;
41217;SDS011;26950;50.960;7.138;2022-08-04T10:57:58;5.32;;;2.42;;
41217;SDS011;26950;50.960;7.138;2022-08-04T11:00:27;2.65;;;2.05;;
41217;SDS011;26950;50.960;7.138;2022-08-04T11:02:57;6.90;;;2.10;;
41217;SDS011;26950;50.960;7.138;2022-08-04T11:05:34;2.85;;;1.60;;
41217;SDS011;26950;50.960;7.138;2022-08-04T11:08:06;6.95;;;1.77;;
41217;SDS011;26950;50.960;7.138;2022-08-04T11:10:39;2.70;;;1.70;;
41217;SDS011;26950;50.960;7.138;2022-08-04T11:13:09;2.22;;;1.45;;
41217;SDS011;26950;50.960;7.138;2022-08-04T11:15:39;4.70;;;1.55;;
41217;SDS011;26950;50.960;7.138;2022-08-04T11:18:18;4.88;;;1.70;;
41217;SDS011;26950;50.960;7.138;2022-08-04T11:20:54;7.40;;;2.17;;
41217;SDS011;26950;50.960;7.138;2022-08-04T11:23:25;7.40;;;2.28;;
41217;SDS011;26950;50.960;7.138;2022-08-04T11:25:59;5.55;;;2.00;;
41217;SDS011;26950;50.960;7.138;2022-08-04T11:28:36;6.75;;;2.10;;
41217;SDS011;26950;50.960;7.138;2022-08-04T11:31:16;9.05;;;2.13;;
41217;SDS011;26950;50.960;7.138;2022-08-04T11:33:51;6.28;;;1.80;;
41217;SDS011;26950;50.960;7.138;2022-08-04T11:36:29;6.55;;;2.28;;
41217;SDS011;26950;50.960;7.138;2022-08-04T11:39:02;4.75;;;1.67;;
41217;SDS011;26950;50.960;7.138;2022-08-04T11:41:38;6.82;;;1.90;;
41217;SDS011;26950;50.960;7.138;2022-08-04T11:44:15;8.20;;;1.85;;
41217;SDS011;26950;50.960;7.138;2022-08-04T11:46:48;3.75;;;1.50;;
41217;SDS011;26950;50.960;7.138;2022-08-04T11:49:23;3.80;;;1.40;;
41217;SDS011;26950;50.960;7.138;2022-08-04T11:51:54;4.00;;;1.55;;
41217;SDS011;26950;50.960;7.138;2022-08-04T11:54:23;3.05;;;1.80;;
41217;SDS011;26950;50.960;7.138;2022-08-04T11:56:50;7.03;;;1.90;;
41217;SDS011;26950;50.960;7.138;2022-08-04T11:59:17;7.85;;;1.88;;
41217;SDS011;26950;50.960;7.138;2022-08-04T12:01:49;4.85;;;1.60;;
41217;SDS011;26950;50.960;7.138;2022-08-04T12:04:35;12.55;;;2.20;;
41217;SDS011;26950;50.960;7.138;2022-08-04T12:07:10;10.43;;;2.08;;
41217;SDS011;26950;50.960;7.138;2022-08-04T12:09:43;8.25;;;2.20;;
41217;SDS011;26950;50.960;7.138;2022-08-04T12:12:16;10.57;;;2.50;;
41217;SDS011;26950;50.960;7.138;2022-08-04T12:14:50;10.27;;;2.10;;
41217;SDS011;26950;50.960;7.138;2022-08-04T12:17:24;10.40;;;2.40;;
41217;SDS011;26950;50.960;7.138;2022-08-04T12:19:59;11.38;;;2.35;;
41217;SDS011;26950;50.960;7.138;2022-08-04T12:22:28;4.65;;;1.88;;
41217;SDS011;26950;50.960;7.138;2022-08-04T12:25:02;7.22;;;2.17;;
41217;SDS011;26950;50.960;7.138;2022-08-04T12:27:30;7.88;;;1.98;;
41217;SDS011;26950;50.960;7.138;2022-08-04T12:30:00;8.68;;;1.95;;
41217;SDS011;26950;50.960;7.138;2022-08-04T12:32:28;5.43;;;1.92;;
41217;SDS011;26950;50.960;7.138;2022-08-04T12:35:02;7.20;;;2.17;;
41217;SDS011;26950;50.960;7.138;2022-08-04T12:37:40;6.85;;;1.95;;
41217;SDS011;26950;50.960;7.138;2022-08-04T12:40:15;9.07;;;2.03;;
41217;SDS011;26950;50.960;7.138;2022-08-04T12:42:44;11.60;;;2.50;;
41217;SDS011;26950;50.960;7.138;2022-08-04T12:45:22;10.50;;;2.45;;
41217;SDS011;26950;50.960;7.138;2022-08-04T12:47:49;14.45;;;2.40;;
41217;SDS011;26950;50.960;7.138;2022-08-04T12:50:19;12.50;;;2.65;;
41217;SDS011;26950;50.960;7.138;2022-08-04T12:52:48;11.45;;;2.72;;
41217;SDS011;26950;50.960;7.138;2022-08-04T12:55:19;8.20;;;2.15;;
41217;SDS011;26950;50.960;7.138;2022-08-04T12:57:48;9.95;;;2.30;;
41217;SDS011;26950;50.960;7.138;2022-08-04T13:00:23;11.48;;;2.40;;
41217;SDS011;26950;50.960;7.138;2022-08-04T13:02:50;8.43;;;2.25;;
41217;SDS011;26950;50.960;7.138;2022-08-04T13:05:21;10.75;;;2.65;;
41217;SDS011;26950;50.960;7.138;2022-08-04T13:07:50;7.20;;;2.40;;
41217;SDS011;26950;50.960;7.138;2022-08-04T13:10:19;8.48;;;2.45;;
41217;SDS011;26950;50.960;7.138;2022-08-04T13:12:52;8.57;;;2.45;;
41217;SDS011;26950;50.960;7.138;2022-08-04T13:15:23;5.95;;;2.08;;
41217;SDS011;26950;50.960;7.138;2022-08-04T13:17:54;7.15;;;2.55;;
41217;SDS011;26950;50.960;7.138;2022-08-04T13:20:25;8.52;;;2.40;;
41217;SDS011;26950;50.960;7.138;2022-08-04T13:23:04;10.13;;;2.47;;
41217;SDS011;26950;50.960;7.138;2022-08-04T13:25:32;6.60;;;2.25;;
41217;SDS011;26950;50.960;7.138;2022-08-04T13:28:04;6.80;;;2.20;;
41217;SDS011;26950;50.960;7.138;2022-08-04T13:30:33;5.40;;;2.45;;
41217;SDS011;26950;50.960;7.138;2022-08-04T13:33:01;10.20;;;2.33;;
41217;SDS011;26950;50.960;7.138;2022-08-04T13:35:31;8.70;;;2.38;;
41217;SDS011;26950;50.960;7.138;2022-08-04T13:37:58;6.28;;;2.15;;
41217;SDS011;26950;50.960;7.138;2022-08-04T13:40:25;8.13;;;2.42;;
41217;SDS011;26950;50.960;7.138;2022-08-04T13:42:53;6.15;;;2.30;;
41217;SDS011;26950;50.960;7.138;2022-08-04T13:45:22;7.90;;;2.03;;
41217;SDS011;26950;50.960;7.138;2022-08-04T13:47:50;5.10;;;1.80;;
41217;SDS011;26950;50.960;7.138;2022-08-04T13:50:24;8.18;;;1.95;;
41217;SDS011;26950;50.960;7.138;2022-08-04T13:52:55;4.25;;;2.00;;
41217;SDS011;26950;50.960;7.138;2022-08-04T13:55:25;4.85;;;1.90;;
41217;SDS011;26950;50.960;7.138;2022-08-04T13:57:55;6.97;;;1.98;;
41217;SDS011;26950;50.960;7.138;2022-08-04T14:00:25;5.00;;;1.80;;
41217;SDS011;26950;50.960;7.138;2022-08-04T14:03:05;4.50;;;1.70;;
41217;SDS011;26950;50.960;7.138;2022-08-04T14:05:33;4.03;;;1.85;;
41217;SDS011;26950;50.960;7.138;2022-08-04T14:08:04;4.88;;;2.00;;
41217;SDS011;26950;50.960;7.138;2022-08-04T14:10:33;6.32;;;2.05;;
41217;SDS011;26950;50.960;7.138;2022-08-04T14:13:02;7.22;;;2.28;;
41217;SDS011;26950;50.960;7.138;2022-08-04T14:15:30;9.00;;;2.38;;
41217;SDS011;26950;50.960;7.138;2022-08-04T14:18:15;3.72;;;2.40;;
41217;SDS011;26950;50.960;7.138;2022-08-04T14:21:00;12.93;;;2.30;;
41217;SDS011;26950;50.960;7.138;2022-08-04T14:23:40;7.22;;;2.13;;
41217;SDS011;26950;50.960;7.138;2022-08-04T14:26:15;8.32;;;2.30;;
41217;SDS011;26950;50.960;7.138;2022-08-04T14:28:43;5.25;;;2.40;;
41217;SDS011;26950;50.960;7.138;2022-08-04T14:31:12;8.48;;;2.63;;
41217;SDS011;26950;50.960;7.138;2022-08-04T14:33:40;9.07;;;2.50;;
41217;SDS011;26950;50.960;7.138;2022-08-04T14:36:08;4.38;;;2.20;;
41217;SDS011;26950;50.960;7.138;2022-08-04T14:38:44;4.78;;;2.50;;
41217;SDS011;26950;50.960;7.138;2022-08-04T14:41:17;5.55;;;2.40;;
41217;SDS011;26950;50.960;7.138;2022-08-04T14:43:46;4.35;;;2.20;;
41217;SDS011;26950;50.960;7.138;2022-08-04T14:46:14;6.75;;;2.38;;
41217;SDS011;26950;50.960;7.138;2022-08-04T14:51:26;4.25;;;2.20;;
41217;SDS011;26950;50.960;7.138;2022-08-04T14:53:54;4.93;;;2.55;;
41217;SDS011;26950;50.960;7.138;2022-08-04T14:56:21;4.95;;;2.10;;
41217;SDS011;26950;50.960;7.138;2022-08-04T14:58:56;4.90;;;2.10;;
41217;SDS011;26950;50.960;7.138;2022-08-04T15:01:24;7.30;;;2.35;;
41217;SDS011;26950;50.960;7.138;2022-08-04T15:03:50;5.03;;;1.83;;
41217;SDS011;26950;50.960;7.138;2022-08-04T15:06:20;5.80;;;2.28;;
41217;SDS011;26950;50.960;7.138;2022-08-04T15:08:47;4.20;;;1.80;;
41217;SDS011;26950;50.960;7.138;2022-08-04T15:11:16;5.97;;;2.50;;
41217;SDS011;26950;50.960;7.138;2022-08-04T15:13:43;5.18;;;2.13;;
41217;SDS011;26950;50.960;7.138;2022-08-04T15:16:10;6.22;;;2.63;;
41217;SDS011;26950;50.960;7.138;2022-08-04T15:18:36;5.10;;;2.40;;
41217;SDS011;26950;50.960;7.138;2022-08-04T15:21:03;6.53;;;2.10;;
41217;SDS011;26950;50.960;7.138;2022-08-04T15:23:30;5.18;;;2.47;;
41217;SDS011;26950;50.960;7.138;2022-08-04T15:25:58;11.18;;;2.80;;
41217;SDS011;26950;50.960;7.138;2022-08-04T15:28:29;8.85;;;2.38;;
41217;SDS011;26950;50.960;7.138;2022-08-04T15:30:57;8.52;;;2.35;;
41217;SDS011;26950;50.960;7.138;2022-08-04T15:33:27;5.00;;;2.35;;
41217;SDS011;26950;50.960;7.138;2022-08-04T15:35:55;7.72;;;2.50;;
41217;SDS011;26950;50.960;7.138;2022-08-04T15:38:37;8.57;;;2.40;;
41217;SDS011;26950;50.960;7.138;2022-08-04T15:41:08;10.02;;;3.00;;
41217;SDS011;26950;50.960;7.138;2022-08-04T15:43:44;9.32;;;2.85;;
41217;SDS011;26950;50.960;7.138;2022-08-04T15:46:19;5.05;;;2.50;;
41217;SDS011;26950;50.960;7.138;2022-08-04T15:49:17;10.63;;;2.80;;
41217;SDS011;26950;50.960;7.138;2022-08-04T15:51:44;7.18;;;2.65;;